sensor_id;sensor_type;location;lat;lon;timestamp;P1;durP1;ratioP1;P2;durP2;ratioP2
28309;SDS011;15571;50.974;13.936;2022-08-26T00:02:35;32.75;;;19.15;;
28309;SDS011;15571;50.974;13.936;2022-08-26T00:05:38;27.48;;;19.23;;
28309;SDS011;15571;50.974;13.936;2022-08-26T00:08:42;27.45;;;18.02;;
28309;SDS011;15571;50.974;13.936;2022-08-26T00:11:45;25.27;;;18.17;;
28309;SDS011;15571;50.974;13.936;2022-08-26T00:14:49;24.83;;;17.27;;
28309;SDS011;15571;50.974;13.936;2022-08-26T00:17:52;24.48;;;17.33;;
28309;SDS011;15571;50.974;13.936;2022-08-26T00:20:55;24.55;;;17.70;;
28309;SDS011;15571;50.974;13.936;2022-08-26T00:23:58;31.15;;;17.83;;
28309;SDS011;15571;50.974;13.936;2022-08-26T00:27:00;28.08;;;19.05;;
28309;SDS011;15571;50.974;13.936;2022-08-26T00:30:06;27.20;;;18.15;;
28309;SDS011;15571;50.974;13.936;2022-08-26T00:33:14;25.33;;;18.23;;
28309;SDS011;15571;50.974;13.936;2022-08-26T00:36:17;31.15;;;18.88;;
28309;SDS011;15571;50.974;13.936;2022-08-26T00:39:20;24.33;;;17.60;;
28309;SDS011;15571;50.974;13.936;2022-08-26T00:42:23;26.63;;;17.95;;
28309;SDS011;15571;50.974;13.936;2022-08-26T00:45:29;30.23;;;18.13;;
28309;SDS011;15571;50.974;13.936;2022-08-26T00:51:44;27.33;;;18.33;;
28309;SDS011;15571;50.974;13.936;2022-08-26T00:54:52;23.02;;;18.33;;
28309;SDS011;15571;50.974;13.936;2022-08-26T00:58:03;31.00;;;19.13;;
28309;SDS011;15571;50.974;13.936;2022-08-26T01:01:09;28.35;;;18.58;;
28309;SDS011;15571;50.974;13.936;2022-08-26T01:04:14;25.40;;;18.77;;
28309;SDS011;15571;50.974;13.936;2022-08-26T01:07:24;26.52;;;17.98;;
28309;SDS011;15571;50.974;13.936;2022-08-26T01:10:30;26.80;;;18.25;;
28309;SDS011;15571;50.974;13.936;2022-08-26T01:13:36;33.05;;;18.42;;
28309;SDS011;15571;50.974;13.936;2022-08-26T01:16:43;30.92;;;18.67;;
28309;SDS011;15571;50.974;13.936;2022-08-26T01:19:48;28.58;;;18.75;;
28309;SDS011;15571;50.974;13.936;2022-08-26T01:22:56;31.13;;;18.95;;
28309;SDS011;15571;50.974;13.936;2022-08-26T01:26:02;29.40;;;19.58;;
28309;SDS011;15571;50.974;13.936;2022-08-26T01:29:10;24.60;;;17.65;;
28309;SDS011;15571;50.974;13.936;2022-08-26T01:32:17;35.30;;;19.33;;
28309;SDS011;15571;50.974;13.936;2022-08-26T01:35:25;35.40;;;20.33;;
28309;SDS011;15571;50.974;13.936;2022-08-26T01:38:30;29.63;;;19.90;;
28309;SDS011;15571;50.974;13.936;2022-08-26T01:41:33;24.05;;;19.50;;
28309;SDS011;15571;50.974;13.936;2022-08-26T01:44:41;27.10;;;19.35;;
28309;SDS011;15571;50.974;13.936;2022-08-26T01:47:49;28.48;;;18.52;;
28309;SDS011;15571;50.974;13.936;2022-08-26T01:50:54;27.38;;;19.30;;
28309;SDS011;15571;50.974;13.936;2022-08-26T01:53:58;26.25;;;18.42;;
28309;SDS011;15571;50.974;13.936;2022-08-26T01:57:01;27.98;;;19.23;;
28309;SDS011;15571;50.974;13.936;2022-08-26T02:00:06;31.15;;;19.17;;
28309;SDS011;15571;50.974;13.936;2022-08-26T02:03:12;27.75;;;19.33;;
28309;SDS011;15571;50.974;13.936;2022-08-26T02:06:18;27.95;;;18.95;;
28309;SDS011;15571;50.974;13.936;2022-08-26T02:09:23;24.40;;;17.88;;
28309;SDS011;15571;50.974;13.936;2022-08-26T02:12:28;27.85;;;19.30;;
28309;SDS011;15571;50.974;13.936;2022-08-26T02:15:33;27.58;;;18.15;;
28309;SDS011;15571;50.974;13.936;2022-08-26T02:18:37;27.83;;;19.42;;
28309;SDS011;15571;50.974;13.936;2022-08-26T02:21:42;29.38;;;20.67;;
28309;SDS011;15571;50.974;13.936;2022-08-26T02:24:49;26.08;;;19.10;;
28309;SDS011;15571;50.974;13.936;2022-08-26T02:27:56;26.38;;;18.58;;
28309;SDS011;15571;50.974;13.936;2022-08-26T02:31:00;35.88;;;20.50;;
28309;SDS011;15571;50.974;13.936;2022-08-26T02:34:07;32.95;;;19.85;;
28309;SDS011;15571;50.974;13.936;2022-08-26T02:37:11;25.65;;;18.45;;
28309;SDS011;15571;50.974;13.936;2022-08-26T02:40:17;30.60;;;20.67;;
28309;SDS011;15571;50.974;13.936;2022-08-26T02:43:25;28.17;;;20.15;;
28309;SDS011;15571;50.974;13.936;2022-08-26T02:46:28;26.60;;;19.65;;
28309;SDS011;15571;50.974;13.936;2022-08-26T02:49:31;24.77;;;17.80;;
28309;SDS011;15571;50.974;13.936;2022-08-26T02:52:34;27.38;;;18.88;;
28309;SDS011;15571;50.974;13.936;2022-08-26T02:55:40;34.70;;;19.92;;
28309;SDS011;15571;50.974;13.936;2022-08-26T02:58:43;31.30;;;19.85;;
28309;SDS011;15571;50.974;13.936;2022-08-26T03:01:46;30.00;;;19.00;;
28309;SDS011;15571;50.974;13.936;2022-08-26T03:04:50;28.40;;;19.38;;
28309;SDS011;15571;50.974;13.936;2022-08-26T03:07:53;27.45;;;18.80;;
28309;SDS011;15571;50.974;13.936;2022-08-26T03:10:58;31.35;;;18.98;;
28309;SDS011;15571;50.974;13.936;2022-08-26T03:14:01;23.17;;;18.10;;
28309;SDS011;15571;50.974;13.936;2022-08-26T03:17:04;26.13;;;18.23;;
28309;SDS011;15571;50.974;13.936;2022-08-26T03:20:07;29.05;;;18.70;;
28309;SDS011;15571;50.974;13.936;2022-08-26T03:23:10;29.20;;;19.27;;
28309;SDS011;15571;50.974;13.936;2022-08-26T03:26:17;25.20;;;18.30;;
28309;SDS011;15571;50.974;13.936;2022-08-26T03:29:20;29.42;;;18.60;;
28309;SDS011;15571;50.974;13.936;2022-08-26T03:32:46;27.33;;;19.02;;
28309;SDS011;15571;50.974;13.936;2022-08-26T03:35:49;30.48;;;18.25;;
28309;SDS011;15571;50.974;13.936;2022-08-26T03:38:55;22.48;;;17.33;;
28309;SDS011;15571;50.974;13.936;2022-08-26T03:42:00;22.77;;;17.88;;
28309;SDS011;15571;50.974;13.936;2022-08-26T03:45:03;25.30;;;19.58;;
28309;SDS011;15571;50.974;13.936;2022-08-26T03:48:07;28.13;;;18.63;;
28309;SDS011;15571;50.974;13.936;2022-08-26T03:51:14;24.30;;;17.75;;
28309;SDS011;15571;50.974;13.936;2022-08-26T03:54:18;22.75;;;18.33;;
28309;SDS011;15571;50.974;13.936;2022-08-26T03:57:22;24.00;;;18.27;;
28309;SDS011;15571;50.974;13.936;2022-08-26T04:00:26;23.38;;;18.02;;
28309;SDS011;15571;50.974;13.936;2022-08-26T04:03:29;28.83;;;18.30;;
28309;SDS011;15571;50.974;13.936;2022-08-26T04:06:49;25.40;;;18.48;;
28309;SDS011;15571;50.974;13.936;2022-08-26T04:09:57;25.25;;;18.58;;
28309;SDS011;15571;50.974;13.936;2022-08-26T04:13:01;29.02;;;18.13;;
28309;SDS011;15571;50.974;13.936;2022-08-26T04:16:04;23.00;;;17.48;;
28309;SDS011;15571;50.974;13.936;2022-08-26T04:19:11;23.02;;;16.45;;
28309;SDS011;15571;50.974;13.936;2022-08-26T04:22:15;25.08;;;17.08;;
28309;SDS011;15571;50.974;13.936;2022-08-26T04:25:21;26.77;;;18.67;;
28309;SDS011;15571;50.974;13.936;2022-08-26T04:28:25;20.08;;;16.70;;
28309;SDS011;15571;50.974;13.936;2022-08-26T04:31:29;24.73;;;17.00;;
28309;SDS011;15571;50.974;13.936;2022-08-26T04:34:32;25.92;;;18.05;;
28309;SDS011;15571;50.974;13.936;2022-08-26T04:37:38;24.92;;;18.52;;
28309;SDS011;15571;50.974;13.936;2022-08-26T04:40:42;23.25;;;17.25;;
28309;SDS011;15571;50.974;13.936;2022-08-26T04:43:49;20.88;;;15.77;;
28309;SDS011;15571;50.974;13.936;2022-08-26T04:46:52;22.67;;;16.80;;
28309;SDS011;15571;50.974;13.936;2022-08-26T04:49:58;23.17;;;16.73;;
28309;SDS011;15571;50.974;13.936;2022-08-26T04:53:01;18.38;;;15.57;;
28309;SDS011;15571;50.974;13.936;2022-08-26T04:56:04;20.27;;;16.65;;
28309;SDS011;15571;50.974;13.936;2022-08-26T04:59:10;19.70;;;16.13;;
28309;SDS011;15571;50.974;13.936;2022-08-26T05:02:15;19.48;;;16.48;;
28309;SDS011;15571;50.974;13.936;2022-08-26T05:05:18;18.83;;;15.70;;
28309;SDS011;15571;50.974;13.936;2022-08-26T05:08:21;21.48;;;15.43;;
28309;SDS011;15571;50.974;13.936;2022-08-26T05:11:26;19.02;;;15.77;;
28309;SDS011;15571;50.974;13.936;2022-08-26T05:14:31;17.83;;;15.80;;
28309;SDS011;15571;50.974;13.936;2022-08-26T05:17:34;25.35;;;17.20;;
28309;SDS011;15571;50.974;13.936;2022-08-26T05:20:37;19.70;;;15.77;;
28309;SDS011;15571;50.974;13.936;2022-08-26T05:23:41;18.73;;;15.82;;
28309;SDS011;15571;50.974;13.936;2022-08-26T05:26:45;24.00;;;17.35;;
28309;SDS011;15571;50.974;13.936;2022-08-26T05:29:49;24.23;;;16.60;;
28309;SDS011;15571;50.974;13.936;2022-08-26T05:32:52;22.17;;;16.52;;
28309;SDS011;15571;50.974;13.936;2022-08-26T05:35:55;22.73;;;16.73;;
28309;SDS011;15571;50.974;13.936;2022-08-26T05:38:57;23.13;;;16.42;;
28309;SDS011;15571;50.974;13.936;2022-08-26T05:42:04;24.05;;;17.10;;
28309;SDS011;15571;50.974;13.936;2022-08-26T05:45:10;22.95;;;17.67;;
28309;SDS011;15571;50.974;13.936;2022-08-26T05:48:15;23.70;;;18.77;;
28309;SDS011;15571;50.974;13.936;2022-08-26T05:51:20;26.63;;;18.63;;
28309;SDS011;15571;50.974;13.936;2022-08-26T05:54:24;28.35;;;17.90;;
28309;SDS011;15571;50.974;13.936;2022-08-26T05:57:27;23.85;;;17.98;;
28309;SDS011;15571;50.974;13.936;2022-08-26T06:00:31;28.40;;;18.00;;
28309;SDS011;15571;50.974;13.936;2022-08-26T06:03:34;23.95;;;18.27;;
28309;SDS011;15571;50.974;13.936;2022-08-26T06:06:39;31.27;;;19.48;;
28309;SDS011;15571;50.974;13.936;2022-08-26T06:09:42;25.83;;;18.48;;
28309;SDS011;15571;50.974;13.936;2022-08-26T06:12:45;26.00;;;18.65;;
28309;SDS011;15571;50.974;13.936;2022-08-26T06:15:50;26.35;;;18.95;;
28309;SDS011;15571;50.974;13.936;2022-08-26T06:18:56;27.95;;;20.10;;
28309;SDS011;15571;50.974;13.936;2022-08-26T06:22:02;32.85;;;20.15;;
28309;SDS011;15571;50.974;13.936;2022-08-26T06:25:25;28.00;;;20.52;;
28309;SDS011;15571;50.974;13.936;2022-08-26T06:28:39;24.75;;;18.52;;
28309;SDS011;15571;50.974;13.936;2022-08-26T06:31:46;30.52;;;17.42;;
28309;SDS011;15571;50.974;13.936;2022-08-26T06:34:49;28.80;;;18.48;;
28309;SDS011;15571;50.974;13.936;2022-08-26T06:37:57;32.60;;;19.13;;
28309;SDS011;15571;50.974;13.936;2022-08-26T06:41:00;25.25;;;17.70;;
28309;SDS011;15571;50.974;13.936;2022-08-26T06:44:04;26.50;;;20.02;;
28309;SDS011;15571;50.974;13.936;2022-08-26T06:47:10;31.42;;;19.17;;
28309;SDS011;15571;50.974;13.936;2022-08-26T06:50:13;31.60;;;18.33;;
28309;SDS011;15571;50.974;13.936;2022-08-26T06:53:21;33.70;;;20.38;;
28309;SDS011;15571;50.974;13.936;2022-08-26T06:56:24;31.73;;;19.17;;
28309;SDS011;15571;50.974;13.936;2022-08-26T06:59:29;36.65;;;19.00;;
28309;SDS011;15571;50.974;13.936;2022-08-26T07:02:34;31.70;;;18.48;;
28309;SDS011;15571;50.974;13.936;2022-08-26T07:05:36;29.05;;;17.55;;
28309;SDS011;15571;50.974;13.936;2022-08-26T07:08:39;27.10;;;18.33;;
28309;SDS011;15571;50.974;13.936;2022-08-26T07:11:42;28.10;;;17.52;;
28309;SDS011;15571;50.974;13.936;2022-08-26T07:14:46;30.27;;;18.45;;
28309;SDS011;15571;50.974;13.936;2022-08-26T07:17:50;31.20;;;19.40;;
28309;SDS011;15571;50.974;13.936;2022-08-26T07:20:53;30.67;;;18.70;;
28309;SDS011;15571;50.974;13.936;2022-08-26T07:23:56;28.52;;;18.02;;
28309;SDS011;15571;50.974;13.936;2022-08-26T07:26:59;31.48;;;19.17;;
28309;SDS011;15571;50.974;13.936;2022-08-26T07:30:03;35.25;;;17.85;;
28309;SDS011;15571;50.974;13.936;2022-08-26T07:33:08;33.50;;;17.48;;
28309;SDS011;15571;50.974;13.936;2022-08-26T07:36:12;34.63;;;17.85;;
28309;SDS011;15571;50.974;13.936;2022-08-26T07:39:16;28.95;;;17.58;;
28309;SDS011;15571;50.974;13.936;2022-08-26T07:42:19;36.03;;;18.48;;
28309;SDS011;15571;50.974;13.936;2022-08-26T07:45:22;29.65;;;18.15;;
28309;SDS011;15571;50.974;13.936;2022-08-26T07:48:31;25.27;;;16.73;;
28309;SDS011;15571;50.974;13.936;2022-08-26T07:51:35;25.73;;;15.93;;
28309;SDS011;15571;50.974;13.936;2022-08-26T07:54:38;26.30;;;17.10;;
28309;SDS011;15571;50.974;13.936;2022-08-26T07:57:40;31.88;;;17.17;;
28309;SDS011;15571;50.974;13.936;2022-08-26T08:00:43;26.65;;;16.65;;
28309;SDS011;15571;50.974;13.936;2022-08-26T08:03:48;28.27;;;18.13;;
28309;SDS011;15571;50.974;13.936;2022-08-26T08:06:55;23.50;;;17.48;;
28309;SDS011;15571;50.974;13.936;2022-08-26T08:10:00;27.75;;;16.98;;
28309;SDS011;15571;50.974;13.936;2022-08-26T08:13:03;27.77;;;16.52;;
28309;SDS011;15571;50.974;13.936;2022-08-26T08:16:09;34.10;;;16.48;;
28309;SDS011;15571;50.974;13.936;2022-08-26T08:19:16;27.30;;;15.98;;
28309;SDS011;15571;50.974;13.936;2022-08-26T08:22:21;29.75;;;15.73;;
28309;SDS011;15571;50.974;13.936;2022-08-26T08:25:24;36.05;;;15.77;;
28309;SDS011;15571;50.974;13.936;2022-08-26T08:28:28;32.00;;;15.07;;
28309;SDS011;15571;50.974;13.936;2022-08-26T08:31:32;26.15;;;16.65;;
28309;SDS011;15571;50.974;13.936;2022-08-26T08:34:36;27.13;;;15.70;;
28309;SDS011;15571;50.974;13.936;2022-08-26T08:37:38;33.05;;;16.20;;
28309;SDS011;15571;50.974;13.936;2022-08-26T08:40:43;32.38;;;16.90;;
28309;SDS011;15571;50.974;13.936;2022-08-26T08:43:49;24.88;;;16.38;;
28309;SDS011;15571;50.974;13.936;2022-08-26T08:46:54;31.52;;;15.52;;
28309;SDS011;15571;50.974;13.936;2022-08-26T08:50:05;33.75;;;16.63;;
28309;SDS011;15571;50.974;13.936;2022-08-26T08:53:16;28.17;;;16.15;;
28309;SDS011;15571;50.974;13.936;2022-08-26T08:56:25;28.90;;;15.13;;
28309;SDS011;15571;50.974;13.936;2022-08-26T09:02:45;25.05;;;14.32;;
28309;SDS011;15571;50.974;13.936;2022-08-26T09:05:54;37.90;;;16.98;;
28309;SDS011;15571;50.974;13.936;2022-08-26T09:09:01;32.58;;;15.45;;
28309;SDS011;15571;50.974;13.936;2022-08-26T09:12:06;24.95;;;15.65;;
28309;SDS011;15571;50.974;13.936;2022-08-26T09:15:14;32.65;;;15.40;;
28309;SDS011;15571;50.974;13.936;2022-08-26T09:18:23;40.58;;;16.25;;
28309;SDS011;15571;50.974;13.936;2022-08-26T09:21:41;29.45;;;14.15;;
28309;SDS011;15571;50.974;13.936;2022-08-26T09:24:44;36.22;;;14.05;;
28309;SDS011;15571;50.974;13.936;2022-08-26T09:27:50;24.85;;;13.45;;
28309;SDS011;15571;50.974;13.936;2022-08-26T09:31:01;31.17;;;14.65;;
28309;SDS011;15571;50.974;13.936;2022-08-26T09:34:21;26.13;;;13.45;;
28309;SDS011;15571;50.974;13.936;2022-08-26T09:37:37;26.50;;;14.05;;
28309;SDS011;15571;50.974;13.936;2022-08-26T09:40:42;27.20;;;13.70;;
28309;SDS011;15571;50.974;13.936;2022-08-26T09:44:13;23.25;;;12.63;;
28309;SDS011;15571;50.974;13.936;2022-08-26T09:47:19;30.17;;;13.73;;
28309;SDS011;15571;50.974;13.936;2022-08-26T09:50:26;25.05;;;11.25;;
28309;SDS011;15571;50.974;13.936;2022-08-26T09:53:35;19.85;;;10.10;;
28309;SDS011;15571;50.974;13.936;2022-08-26T09:56:52;16.80;;;8.57;;
28309;SDS011;15571;50.974;13.936;2022-08-26T10:00:21;17.65;;;8.88;;
28309;SDS011;15571;50.974;13.936;2022-08-26T10:03:27;17.55;;;7.30;;
28309;SDS011;15571;50.974;13.936;2022-08-26T10:06:33;13.10;;;6.65;;
28309;SDS011;15571;50.974;13.936;2022-08-26T10:09:41;12.80;;;7.00;;
28309;SDS011;15571;50.974;13.936;2022-08-26T10:12:49;14.32;;;6.95;;
28309;SDS011;15571;50.974;13.936;2022-08-26T10:16:00;15.65;;;7.93;;
28309;SDS011;15571;50.974;13.936;2022-08-26T10:19:12;16.30;;;7.68;;
28309;SDS011;15571;50.974;13.936;2022-08-26T10:22:23;17.25;;;8.35;;
28309;SDS011;15571;50.974;13.936;2022-08-26T10:25:34;17.88;;;8.48;;
28309;SDS011;15571;50.974;13.936;2022-08-26T10:28:45;24.33;;;9.38;;
28309;SDS011;15571;50.974;13.936;2022-08-26T10:31:54;22.40;;;10.20;;
28309;SDS011;15571;50.974;13.936;2022-08-26T10:35:01;21.77;;;10.05;;
28309;SDS011;15571;50.974;13.936;2022-08-26T10:38:06;17.85;;;9.55;;
28309;SDS011;15571;50.974;13.936;2022-08-26T10:41:14;17.30;;;9.32;;
28309;SDS011;15571;50.974;13.936;2022-08-26T10:44:23;15.85;;;8.75;;
28309;SDS011;15571;50.974;13.936;2022-08-26T10:47:31;15.18;;;8.73;;
28309;SDS011;15571;50.974;13.936;2022-08-26T10:50:39;15.27;;;8.98;;
28309;SDS011;15571;50.974;13.936;2022-08-26T10:53:45;16.02;;;8.63;;
28309;SDS011;15571;50.974;13.936;2022-08-26T11:00:07;15.90;;;8.70;;
28309;SDS011;15571;50.974;13.936;2022-08-26T11:03:29;19.75;;;10.55;;
28309;SDS011;15571;50.974;13.936;2022-08-26T11:06:39;18.45;;;9.02;;
28309;SDS011;15571;50.974;13.936;2022-08-26T11:09:45;19.50;;;8.65;;
28309;SDS011;15571;50.974;13.936;2022-08-26T11:12:52;16.98;;;8.20;;
28309;SDS011;15571;50.974;13.936;2022-08-26T11:15:59;16.63;;;9.10;;
28309;SDS011;15571;50.974;13.936;2022-08-26T11:19:02;14.45;;;8.13;;
28309;SDS011;15571;50.974;13.936;2022-08-26T11:22:07;17.70;;;8.40;;
28309;SDS011;15571;50.974;13.936;2022-08-26T11:25:12;16.42;;;8.20;;
28309;SDS011;15571;50.974;13.936;2022-08-26T11:28:30;15.57;;;8.18;;
28309;SDS011;15571;50.974;13.936;2022-08-26T11:31:52;18.13;;;8.23;;
28309;SDS011;15571;50.974;13.936;2022-08-26T11:34:56;16.33;;;9.00;;
28309;SDS011;15571;50.974;13.936;2022-08-26T11:38:01;18.73;;;8.20;;
28309;SDS011;15571;50.974;13.936;2022-08-26T11:41:16;17.88;;;8.60;;
28309;SDS011;15571;50.974;13.936;2022-08-26T11:44:25;15.93;;;8.15;;
28309;SDS011;15571;50.974;13.936;2022-08-26T11:47:33;16.55;;;8.23;;
28309;SDS011;15571;50.974;13.936;2022-08-26T11:50:39;13.77;;;7.93;;
28309;SDS011;15571;50.974;13.936;2022-08-26T11:53:42;14.45;;;7.32;;
28309;SDS011;15571;50.974;13.936;2022-08-26T11:56:45;20.25;;;8.20;;
28309;SDS011;15571;50.974;13.936;2022-08-26T11:59:52;14.82;;;7.72;;
28309;SDS011;15571;50.974;13.936;2022-08-26T12:03:06;12.32;;;7.72;;
28309;SDS011;15571;50.974;13.936;2022-08-26T12:06:20;14.43;;;8.05;;
28309;SDS011;15571;50.974;13.936;2022-08-26T12:09:27;14.68;;;7.82;;
28309;SDS011;15571;50.974;13.936;2022-08-26T12:12:31;13.38;;;7.60;;
28309;SDS011;15571;50.974;13.936;2022-08-26T12:15:49;11.85;;;7.80;;
28309;SDS011;15571;50.974;13.936;2022-08-26T12:19:22;13.23;;;7.10;;
28309;SDS011;15571;50.974;13.936;2022-08-26T12:22:30;12.52;;;7.35;;
28309;SDS011;15571;50.974;13.936;2022-08-26T12:25:44;12.18;;;6.82;;
28309;SDS011;15571;50.974;13.936;2022-08-26T12:28:49;11.80;;;6.75;;
28309;SDS011;15571;50.974;13.936;2022-08-26T12:35:21;12.50;;;6.40;;
28309;SDS011;15571;50.974;13.936;2022-08-26T12:38:30;13.85;;;7.35;;
28309;SDS011;15571;50.974;13.936;2022-08-26T12:41:50;10.82;;;7.22;;
28309;SDS011;15571;50.974;13.936;2022-08-26T12:45:05;13.63;;;8.57;;
28309;SDS011;15571;50.974;13.936;2022-08-26T12:48:57;16.73;;;8.80;;
28309;SDS011;15571;50.974;13.936;2022-08-26T12:52:19;10.02;;;7.47;;
28309;SDS011;15571;50.974;13.936;2022-08-26T12:55:41;13.32;;;7.18;;
28309;SDS011;15571;50.974;13.936;2022-08-26T12:59:06;14.27;;;7.47;;
28309;SDS011;15571;50.974;13.936;2022-08-26T13:02:35;15.05;;;7.32;;
28309;SDS011;15571;50.974;13.936;2022-08-26T13:05:49;15.25;;;7.70;;
28309;SDS011;15571;50.974;13.936;2022-08-26T13:08:53;16.23;;;8.40;;
28309;SDS011;15571;50.974;13.936;2022-08-26T13:12:06;18.38;;;8.98;;
28309;SDS011;15571;50.974;13.936;2022-08-26T13:15:11;12.52;;;8.15;;
28309;SDS011;15571;50.974;13.936;2022-08-26T13:18:19;14.00;;;7.97;;
28309;SDS011;15571;50.974;13.936;2022-08-26T13:21:35;17.92;;;8.60;;
28309;SDS011;15571;50.974;13.936;2022-08-26T13:24:54;12.57;;;8.45;;
28309;SDS011;15571;50.974;13.936;2022-08-26T13:27:58;15.52;;;8.95;;
28309;SDS011;15571;50.974;13.936;2022-08-26T13:31:03;15.95;;;8.48;;
28309;SDS011;15571;50.974;13.936;2022-08-26T13:34:22;14.60;;;7.93;;
28309;SDS011;15571;50.974;13.936;2022-08-26T13:37:29;14.15;;;7.32;;
28309;SDS011;15571;50.974;13.936;2022-08-26T13:40:34;11.23;;;7.82;;
28309;SDS011;15571;50.974;13.936;2022-08-26T13:43:42;15.20;;;7.78;;
28309;SDS011;15571;50.974;13.936;2022-08-26T13:46:45;12.82;;;7.53;;
28309;SDS011;15571;50.974;13.936;2022-08-26T13:49:55;15.93;;;8.90;;
28309;SDS011;15571;50.974;13.936;2022-08-26T13:52:59;15.68;;;8.52;;
28309;SDS011;15571;50.974;13.936;2022-08-26T13:56:02;14.43;;;8.45;;
28309;SDS011;15571;50.974;13.936;2022-08-26T13:59:09;19.92;;;8.85;;
28309;SDS011;15571;50.974;13.936;2022-08-26T14:02:17;14.05;;;8.95;;
28309;SDS011;15571;50.974;13.936;2022-08-26T14:05:30;13.65;;;8.40;;
28309;SDS011;15571;50.974;13.936;2022-08-26T14:08:34;12.27;;;7.95;;
28309;SDS011;15571;50.974;13.936;2022-08-26T14:11:54;14.30;;;8.23;;
28309;SDS011;15571;50.974;13.936;2022-08-26T14:15:04;13.43;;;8.38;;
28309;SDS011;15571;50.974;13.936;2022-08-26T14:18:09;12.88;;;9.30;;
28309;SDS011;15571;50.974;13.936;2022-08-26T14:21:15;20.15;;;8.82;;
28309;SDS011;15571;50.974;13.936;2022-08-26T14:24:21;18.42;;;8.40;;
28309;SDS011;15571;50.974;13.936;2022-08-26T14:27:25;13.18;;;7.75;;
28309;SDS011;15571;50.974;13.936;2022-08-26T14:30:48;12.82;;;7.65;;
28309;SDS011;15571;50.974;13.936;2022-08-26T14:33:54;10.70;;;7.50;;
28309;SDS011;15571;50.974;13.936;2022-08-26T14:36:59;11.18;;;7.25;;
28309;SDS011;15571;50.974;13.936;2022-08-26T14:40:03;11.73;;;6.88;;
28309;SDS011;15571;50.974;13.936;2022-08-26T14:43:07;18.80;;;10.82;;
28309;SDS011;15571;50.974;13.936;2022-08-26T14:46:13;12.98;;;9.55;;
28309;SDS011;15571;50.974;13.936;2022-08-26T14:49:16;14.57;;;10.77;;
28309;SDS011;15571;50.974;13.936;2022-08-26T14:52:22;18.95;;;10.07;;
28309;SDS011;15571;50.974;13.936;2022-08-26T14:55:27;12.98;;;8.90;;
28309;SDS011;15571;50.974;13.936;2022-08-26T14:58:32;18.27;;;9.85;;
28309;SDS011;15571;50.974;13.936;2022-08-26T15:01:35;21.20;;;8.23;;
28309;SDS011;15571;50.974;13.936;2022-08-26T15:04:47;18.08;;;8.07;;
28309;SDS011;15571;50.974;13.936;2022-08-26T15:07:50;17.70;;;7.95;;
28309;SDS011;15571;50.974;13.936;2022-08-26T15:10:57;18.63;;;8.32;;
28309;SDS011;15571;50.974;13.936;2022-08-26T15:14:00;12.88;;;7.28;;
28309;SDS011;15571;50.974;13.936;2022-08-26T15:17:03;12.23;;;7.05;;
28309;SDS011;15571;50.974;13.936;2022-08-26T15:20:10;19.92;;;7.30;;
28309;SDS011;15571;50.974;13.936;2022-08-26T15:23:13;21.33;;;7.20;;
28309;SDS011;15571;50.974;13.936;2022-08-26T15:26:19;15.07;;;6.55;;
28309;SDS011;15571;50.974;13.936;2022-08-26T15:29:23;17.48;;;6.80;;
28309;SDS011;15571;50.974;13.936;2022-08-26T15:32:26;11.38;;;6.15;;
28309;SDS011;15571;50.974;13.936;2022-08-26T15:35:30;12.48;;;6.18;;
28309;SDS011;15571;50.974;13.936;2022-08-26T15:38:34;17.92;;;6.88;;
28309;SDS011;15571;50.974;13.936;2022-08-26T15:41:46;11.00;;;6.65;;
28309;SDS011;15571;50.974;13.936;2022-08-26T15:44:48;15.88;;;7.68;;
28309;SDS011;15571;50.974;13.936;2022-08-26T15:47:51;11.95;;;6.47;;
28309;SDS011;15571;50.974;13.936;2022-08-26T15:50:55;13.38;;;5.95;;
28309;SDS011;15571;50.974;13.936;2022-08-26T15:54:00;12.18;;;6.68;;
28309;SDS011;15571;50.974;13.936;2022-08-26T15:57:05;13.02;;;6.63;;
28309;SDS011;15571;50.974;13.936;2022-08-26T16:00:09;8.85;;;6.03;;
28309;SDS011;15571;50.974;13.936;2022-08-26T16:03:12;13.80;;;5.93;;
28309;SDS011;15571;50.974;13.936;2022-08-26T16:06:15;11.52;;;6.13;;
28309;SDS011;15571;50.974;13.936;2022-08-26T16:09:20;13.90;;;6.28;;
28309;SDS011;15571;50.974;13.936;2022-08-26T16:12:35;11.75;;;6.22;;
28309;SDS011;15571;50.974;13.936;2022-08-26T16:15:41;11.80;;;6.70;;
28309;SDS011;15571;50.974;13.936;2022-08-26T16:18:48;11.75;;;6.45;;
28309;SDS011;15571;50.974;13.936;2022-08-26T16:21:50;16.52;;;6.00;;
28309;SDS011;15571;50.974;13.936;2022-08-26T16:24:56;12.23;;;5.85;;
28309;SDS011;15571;50.974;13.936;2022-08-26T16:28:01;12.60;;;6.30;;
28309;SDS011;15571;50.974;13.936;2022-08-26T16:31:07;10.00;;;5.47;;
28309;SDS011;15571;50.974;13.936;2022-08-26T16:34:12;12.45;;;6.07;;
28309;SDS011;15571;50.974;13.936;2022-08-26T16:37:14;10.82;;;6.28;;
28309;SDS011;15571;50.974;13.936;2022-08-26T16:40:17;14.30;;;6.60;;
28309;SDS011;15571;50.974;13.936;2022-08-26T16:43:22;10.02;;;5.68;;
28309;SDS011;15571;50.974;13.936;2022-08-26T16:46:25;13.02;;;6.18;;
28309;SDS011;15571;50.974;13.936;2022-08-26T16:49:29;10.98;;;5.20;;
28309;SDS011;15571;50.974;13.936;2022-08-26T16:52:31;10.00;;;5.72;;
28309;SDS011;15571;50.974;13.936;2022-08-26T16:55:34;9.07;;;5.57;;
28309;SDS011;15571;50.974;13.936;2022-08-26T16:58:39;10.88;;;6.30;;
28309;SDS011;15571;50.974;13.936;2022-08-26T17:01:43;8.15;;;5.60;;
28309;SDS011;15571;50.974;13.936;2022-08-26T17:04:46;8.35;;;5.40;;
28309;SDS011;15571;50.974;13.936;2022-08-26T17:07:50;10.68;;;6.88;;
28309;SDS011;15571;50.974;13.936;2022-08-26T17:10:53;12.50;;;7.20;;
28309;SDS011;15571;50.974;13.936;2022-08-26T17:14:02;10.05;;;5.95;;
28309;SDS011;15571;50.974;13.936;2022-08-26T17:17:05;9.63;;;5.68;;
28309;SDS011;15571;50.974;13.936;2022-08-26T17:20:09;9.98;;;6.05;;
28309;SDS011;15571;50.974;13.936;2022-08-26T17:23:14;12.00;;;6.82;;
28309;SDS011;15571;50.974;13.936;2022-08-26T17:26:17;12.50;;;6.43;;
28309;SDS011;15571;50.974;13.936;2022-08-26T17:29:23;15.77;;;6.63;;
28309;SDS011;15571;50.974;13.936;2022-08-26T17:32:26;12.23;;;7.00;;
28309;SDS011;15571;50.974;13.936;2022-08-26T17:35:32;11.90;;;6.68;;
28309;SDS011;15571;50.974;13.936;2022-08-26T17:38:35;11.57;;;6.10;;
28309;SDS011;15571;50.974;13.936;2022-08-26T17:41:41;10.48;;;5.97;;
28309;SDS011;15571;50.974;13.936;2022-08-26T17:44:45;13.98;;;6.63;;
28309;SDS011;15571;50.974;13.936;2022-08-26T17:47:52;10.40;;;6.47;;
28309;SDS011;15571;50.974;13.936;2022-08-26T17:50:55;12.82;;;6.95;;
28309;SDS011;15571;50.974;13.936;2022-08-26T17:54:04;12.68;;;6.80;;
28309;SDS011;15571;50.974;13.936;2022-08-26T17:57:07;12.88;;;6.75;;
28309;SDS011;15571;50.974;13.936;2022-08-26T18:00:12;14.38;;;7.20;;
28309;SDS011;15571;50.974;13.936;2022-08-26T18:03:24;10.55;;;6.82;;
28309;SDS011;15571;50.974;13.936;2022-08-26T18:06:27;9.73;;;6.22;;
28309;SDS011;15571;50.974;13.936;2022-08-26T18:09:33;13.27;;;6.47;;
28309;SDS011;15571;50.974;13.936;2022-08-26T18:12:37;7.82;;;6.00;;
28309;SDS011;15571;50.974;13.936;2022-08-26T18:15:47;8.23;;;5.85;;